Aérodrome :
LOGIN :

S'inscrire | Disclaimer

   EN    FR    IT 

 










Légende :    VFR   VFR Marginal   IFR   IFR Intensif   IFR Très Intensif
Visi : 
Plafond : 
>= 8 km
>= 3000ft
5 à 8 km
1000 à 3000 ft
1500m à 5 km
500 à 1000 ft
800 à 1500m
200 à 500 ft
< 800m
< 200 ft
Symboles :   Orages  Brouillard  Fortes neiges  Fortes précipitations  Vent > 20 kt
SIGMETs :   Divers  Orages  Givrage  Turbulence  Onde Orograph.  Cendres Volcan.






- Altitude de l'aérodrome : 1106 ft


LFSO - Nancy / Ochey

DERNIER METAR :
  • 220300Z AUTO VRB02KT 4000 BR NSC M04/M05 Q1033

METARs EXPIRÉS :
  • 220230Z AUTO 05001KT 3600 BR NSC M04/M04 Q1034
  • 220200Z AUTO 03003KT 4700 BR NSC M04/M04 Q1034
  • 220130Z AUTO 01004KT 5000 BR NSC M04/M05 Q1034
  • 220100Z AUTO 35003KT 5000 BR NSC M03/M05 Q1034
  • 220030Z AUTO VRB02KT 5000 BR NSC M03/M04 Q1035
  • 220000Z AUTO 06002KT 6000 NSC M02/M04 Q1035

TAF TAF LFSO
Valide du 21 à 21h jusqu'au 22 à 21h UTC


212000Z 2121/2221 VRB03KT 7000 NSC
PROB30
TEMPO 2203/2206 4000 BR



MET'MAP, la Météo Aéronautique d'un coup d'oeil ! - Copyright ORBIFLY Décembre 2007 - Disclaimer

ORBIFLY MET'MAP TEAM :

Programmation & Développement : Alexandra Zaïnal
Sur une idée originale de : Baudouin d'Aumeries
Assistance à la programmation : Marc-Olivier Méhu
Soutien technique & logistique : Manuel Goepfert

Contact : metmap@orbifly.com




SOURCES & CREDITS :

   NOAA